createdAt,value
2023-03-06T00:02:41.970Z,5.05
2023-03-06T00:07:47.377Z,5.55
2023-03-06T00:12:53.716Z,6.93
2023-03-06T00:17:58.311Z,5.97
2023-03-06T00:23:03.923Z,5.38
2023-03-06T00:28:07.975Z,4.47
2023-03-06T00:33:12.172Z,4.25
2023-03-06T00:38:17.658Z,5.95
2023-03-06T00:43:21.642Z,6.43
2023-03-06T00:48:25.856Z,4.78
2023-03-06T00:53:31.270Z,5.63
2023-03-06T00:58:35.337Z,3.95
2023-03-06T01:03:39.443Z,6.80
2023-03-06T01:08:45.247Z,4.13
2023-03-06T01:13:49.414Z,4.90
2023-03-06T01:18:53.528Z,7.18
2023-03-06T01:23:58.996Z,6.43
2023-03-06T01:29:03.536Z,8.75
2023-03-06T01:34:07.699Z,5.25
2023-03-06T01:39:13.215Z,6.55
2023-03-06T01:44:17.371Z,5.07
2023-03-06T01:49:24.953Z,4.82
2023-03-06T01:54:36.955Z,8.43
2023-03-06T01:59:43.601Z,4.75
2023-03-06T02:04:48.463Z,7.60
2023-03-06T02:09:53.840Z,5.57
2023-03-06T02:15:00.695Z,4.70
2023-03-06T02:20:12.522Z,4.35
2023-03-06T02:25:35.291Z,6.10
2023-03-06T02:30:41.471Z,7.50
2023-03-06T02:35:51.490Z,5.72
2023-03-06T02:40:58.130Z,6.90
2023-03-06T02:46:06.660Z,4.50
2023-03-06T02:51:11.192Z,4.82
2023-03-06T02:56:17.930Z,7.07
2023-03-06T03:01:23.201Z,5.03
2023-03-06T03:06:27.934Z,6.53
2023-03-06T03:11:34.538Z,6.47
2023-03-06T03:16:40.072Z,4.40
2023-03-06T03:21:47.442Z,5.45
2023-03-06T03:26:53.602Z,7.18
2023-03-06T03:32:00.091Z,8.70
2023-03-06T03:37:04.387Z,6.97
2023-03-06T03:42:10.246Z,8.45
2023-03-06T03:47:14.793Z,8.93
2023-03-06T03:52:18.904Z,11.23
2023-03-06T03:57:24.661Z,8.90
2023-03-06T04:02:30.693Z,11.60
2023-03-06T04:07:44.571Z,11.88
2023-03-06T04:12:50.341Z,13.63
2023-03-06T04:17:54.926Z,12.32
2023-03-06T04:23:03.437Z,14.82
2023-03-06T04:28:10.452Z,14.70
2023-03-06T04:33:14.647Z,11.63
2023-03-06T04:38:20.342Z,14.98
2023-03-06T04:43:26.106Z,17.85
2023-03-06T04:48:30.118Z,15.25
2023-03-06T04:53:34.538Z,21.95
2023-03-06T04:58:41.194Z,18.17
2023-03-06T05:03:45.828Z,20.45
2023-03-06T05:08:50.221Z,17.95
2023-03-06T05:13:56.124Z,18.45
2023-03-06T05:19:00.617Z,18.40
2023-03-06T05:24:04.916Z,22.75
2023-03-06T05:29:10.269Z,19.77
2023-03-06T05:34:15.920Z,21.00
2023-03-06T05:39:20.216Z,21.58
2023-03-06T05:44:25.645Z,18.73
2023-03-06T05:49:34.710Z,20.38
2023-03-06T05:54:38.700Z,18.02
2023-03-06T05:59:46.285Z,21.55
2023-03-06T06:04:50.467Z,19.02
2023-03-06T06:09:54.958Z,22.73
2023-03-06T06:15:00.740Z,20.40
2023-03-06T06:20:06.199Z,18.30
2023-03-06T06:25:11.091Z,23.40
2023-03-06T06:30:17.446Z,22.58
2023-03-06T06:35:22.178Z,25.27
2023-03-06T06:40:27.664Z,24.13
2023-03-06T06:45:33.632Z,23.70
2023-03-06T06:50:38.567Z,26.70
2023-03-06T06:55:43.074Z,25.38
2023-03-06T07:00:48.709Z,25.63
2023-03-06T07:05:57.733Z,25.33
2023-03-06T07:11:08.003Z,27.48
2023-03-06T07:16:13.536Z,25.83
2023-03-06T07:21:17.697Z,31.73
2023-03-06T07:26:21.940Z,25.73
2023-03-06T07:31:28.794Z,41.72
2023-03-06T07:36:34.137Z,25.35
2023-03-06T07:41:38.351Z,28.60
2023-03-06T07:46:43.854Z,26.15
2023-03-06T07:51:47.907Z,34.28
2023-03-06T07:56:52.615Z,26.83
2023-03-06T08:01:58.172Z,30.75
2023-03-06T08:07:03.480Z,26.48
2023-03-06T08:12:08.479Z,22.48
2023-03-06T08:17:13.886Z,22.85
2023-03-06T08:22:17.854Z,30.60
2023-03-06T08:27:21.817Z,25.88
2023-03-06T08:32:28.950Z,32.78
2023-03-06T08:37:33.110Z,27.90
2023-03-06T08:42:37.293Z,26.60
2023-03-06T08:47:42.642Z,25.83
2023-03-06T08:52:46.610Z,22.00
2023-03-06T08:57:50.599Z,20.60
2023-03-06T09:02:56.005Z,21.65
2023-03-06T09:08:00.328Z,20.58
2023-03-06T09:13:04.413Z,25.67
2023-03-06T09:18:09.882Z,26.13
2023-03-06T09:23:13.885Z,19.33
2023-03-06T09:28:18.049Z,19.77
2023-03-06T09:33:24.054Z,20.50
2023-03-06T09:38:29.526Z,21.40
2023-03-06T09:43:37.010Z,23.50
2023-03-06T09:48:55.309Z,17.65
2023-03-06T09:54:06.879Z,20.30
2023-03-06T09:59:17.822Z,18.38
2023-03-06T10:04:37.247Z,15.90
2023-03-06T10:09:47.005Z,14.68
2023-03-06T10:15:03.169Z,18.10
2023-03-06T10:20:26.244Z,17.80
2023-03-06T10:25:34.477Z,21.10
2023-03-06T10:30:46.009Z,19.38
2023-03-06T10:35:53.521Z,17.00
2023-03-06T10:41:08.227Z,19.73
2023-03-06T10:46:14.961Z,11.77
2023-03-06T10:51:23.851Z,9.73
2023-03-06T10:56:32.876Z,8.13
2023-03-06T11:01:37.517Z,14.80
2023-03-06T11:06:43.143Z,9.15
2023-03-06T11:11:47.288Z,10.55
2023-03-06T11:16:54.100Z,10.90
2023-03-06T11:22:05.562Z,9.32
2023-03-06T11:27:23.429Z,8.82
2023-03-06T11:32:32.349Z,11.30
2023-03-06T11:37:47.537Z,11.75
2023-03-06T11:42:57.553Z,10.43
2023-03-06T11:48:21.095Z,7.55
2023-03-06T11:53:33.829Z,7.10
2023-03-06T11:58:55.184Z,7.65
2023-03-06T12:04:56.298Z,8.40
2023-03-06T12:10:15.414Z,8.45
2023-03-06T12:15:41.823Z,11.55
2023-03-06T12:21:01.418Z,9.52
2023-03-06T12:26:23.622Z,10.40
2023-03-06T12:31:57.975Z,7.63
2023-03-06T12:37:12.870Z,11.68
2023-03-06T12:43:00.742Z,11.45
2023-03-06T12:48:12.733Z,7.80
2023-03-06T12:53:25.942Z,9.73
2023-03-06T12:58:50.419Z,11.50
2023-03-06T13:04:30.169Z,9.63
2023-03-06T13:09:45.982Z,11.77
2023-03-06T13:15:01.357Z,10.95
2023-03-06T13:20:39.049Z,13.43
2023-03-06T13:25:51.448Z,12.90
2023-03-06T13:30:57.146Z,12.05
2023-03-06T13:36:21.482Z,9.95
2023-03-06T13:41:57.236Z,12.40
2023-03-06T13:47:06.302Z,8.90
2023-03-06T13:52:20.850Z,11.50
2023-03-06T13:57:50.656Z,12.15
2023-03-06T14:03:57.287Z,11.93
2023-03-06T14:09:03.495Z,12.55
2023-03-06T14:14:10.606Z,9.73
2023-03-06T14:19:18.970Z,20.17
2023-03-06T14:24:35.648Z,12.40
2023-03-06T14:29:39.681Z,9.63
2023-03-06T14:34:46.696Z,10.65
2023-03-06T14:45:07.450Z,12.88
2023-03-06T14:50:24.510Z,14.77
2023-03-06T14:55:31.462Z,14.60
2023-03-06T15:00:42.473Z,21.50
2023-03-06T15:05:48.160Z,15.20
2023-03-06T15:11:03.326Z,15.00
2023-03-06T15:16:10.574Z,11.18
2023-03-06T15:21:21.290Z,19.65
2023-03-06T15:26:33.368Z,10.27
2023-03-06T15:31:38.743Z,15.10
2023-03-06T15:36:45.387Z,16.05
2023-03-06T15:41:59.232Z,13.98
2023-03-06T15:47:08.801Z,17.27
2023-03-06T15:52:13.301Z,18.45
2023-03-06T15:57:23.960Z,16.25
2023-03-06T16:02:28.034Z,21.55
2023-03-06T16:07:32.252Z,15.35
2023-03-06T16:12:37.732Z,17.40
2023-03-06T16:17:41.980Z,19.10
2023-03-06T16:22:47.546Z,15.80
2023-03-06T16:27:56.884Z,20.30
2023-03-06T16:33:01.947Z,17.08
2023-03-06T16:38:06.446Z,18.70
2023-03-06T16:43:13.584Z,19.85
2023-03-06T16:48:18.253Z,16.95
2023-03-06T16:53:22.446Z,24.20
2023-03-06T16:58:28.432Z,18.75
2023-03-06T17:03:32.445Z,18.60
2023-03-06T17:08:36.530Z,17.33
2023-03-06T17:13:42.479Z,21.30
2023-03-06T17:18:47.530Z,16.80
2023-03-06T17:23:51.668Z,19.13
2023-03-06T17:28:57.231Z,14.88
2023-03-06T17:34:01.337Z,18.20
2023-03-06T17:39:06.181Z,12.85
2023-03-06T17:44:12.196Z,11.52
2023-03-06T17:49:19.386Z,17.48
2023-03-06T17:54:26.136Z,16.05
2023-03-06T17:59:34.010Z,18.33
2023-03-06T18:04:38.089Z,15.95
2023-03-06T18:09:44.718Z,15.50
2023-03-06T18:14:50.812Z,21.38
2023-03-06T18:19:56.874Z,20.67
2023-03-06T18:25:01.020Z,15.45
2023-03-06T18:30:08.158Z,20.90
2023-03-06T18:35:12.241Z,15.40
2023-03-06T18:40:20.441Z,20.27
2023-03-06T18:45:26.044Z,19.00
2023-03-06T18:50:30.346Z,17.88
2023-03-06T18:55:34.464Z,17.35
2023-03-06T19:00:39.849Z,19.67
2023-03-06T19:05:46.390Z,21.70
2023-03-06T19:10:50.575Z,19.38
2023-03-06T19:15:57.251Z,16.95
2023-03-06T19:21:12.580Z,17.08
2023-03-06T19:26:18.941Z,22.90
2023-03-06T19:31:26.777Z,19.88
2023-03-06T19:36:34.019Z,19.90
2023-03-06T19:41:38.161Z,18.38
2023-03-06T19:46:43.930Z,24.05
2023-03-06T19:51:48.003Z,20.50
2023-03-06T19:56:52.592Z,21.52
2023-03-06T20:01:58.250Z,20.65
2023-03-06T20:07:04.838Z,22.30
2023-03-06T20:12:09.239Z,19.65
2023-03-06T20:17:14.618Z,18.48
2023-03-06T20:22:19.594Z,22.75
2023-03-06T20:27:23.699Z,17.10
2023-03-06T20:32:29.360Z,21.77
2023-03-06T20:37:33.518Z,17.45
2023-03-06T20:42:37.705Z,13.73
2023-03-06T20:47:46.904Z,20.98
2023-03-06T20:52:54.911Z,15.65
2023-03-06T20:57:59.084Z,20.30
2023-03-06T21:03:04.495Z,13.88
2023-03-06T21:08:08.695Z,11.38
2023-03-06T21:13:12.776Z,17.33
2023-03-06T21:18:18.329Z,17.88
2023-03-06T21:23:22.437Z,15.10
2023-03-06T21:28:26.705Z,13.15
2023-03-06T21:33:32.212Z,15.52
2023-03-06T21:38:37.122Z,20.85
2023-03-06T21:43:41.832Z,10.48
2023-03-06T21:48:47.291Z,9.25
2023-03-06T21:53:52.506Z,7.03
2023-03-06T21:58:58.076Z,7.32
2023-03-06T22:04:04.025Z,6.13
2023-03-06T22:09:08.592Z,4.75
2023-03-06T22:14:15.036Z,6.30
2023-03-06T22:19:22.826Z,5.55
2023-03-06T22:24:26.968Z,6.07
2023-03-06T22:29:31.315Z,6.70
2023-03-06T22:34:36.804Z,6.15
2023-03-06T22:39:41.852Z,5.70
2023-03-06T22:44:46.232Z,6.07
2023-03-06T22:49:51.726Z,5.10
2023-03-06T22:54:55.797Z,5.18
2023-03-06T22:59:59.850Z,3.65
2023-03-06T23:05:05.971Z,2.78
2023-03-06T23:10:12.022Z,3.70
2023-03-06T23:15:38.047Z,3.97
2023-03-06T23:21:05.989Z,3.83
2023-03-06T23:26:31.430Z,3.78
2023-03-06T23:31:35.628Z,3.05
2023-03-06T23:36:41.775Z,2.70
2023-03-06T23:41:46.168Z,3.27
2023-03-06T23:46:50.499Z,1.98
2023-03-06T23:51:56.177Z,2.55
2023-03-06T23:57:00.279Z,1.40
